Time;durP1;ratioP1;P1;durP2;ratioP2;P2;SDS_P1;SDS_P2;PMS_P1;PMS_P2;Temp;Humidity;BMP_temperature;BMP_pressure;BME280_temperature;BME280_humidity;BME280_pressure;Samples;Min_cycle;Max_cycle;Signal;HPM_P1;HPM_P2
2021/11/03 00:02:05;;;;;;;2.47;2.28;;;9.20;99.90;;;;;;5022319;28;20219;-79
2021/11/03 00:04:33;;;;;;;2.40;2.30;;;9.20;99.90;;;;;;5020660;28;20608;-78
2021/11/03 00:07:00;;;;;;;2.47;2.28;;;9.20;99.90;;;;;;5026158;28;20227;-77
2021/11/03 00:09:27;;;;;;;2.38;2.17;;;9.20;99.90;;;;;;5025166;28;20234;-79
2021/11/03 00:11:56;;;;;;;2.17;2.08;;;9.10;99.90;;;;;;5023972;28;20226;-78
2021/11/03 00:14:23;;;;;;;2.30;2.20;;;9.10;99.90;;;;;;5027026;28;20571;-80
2021/11/03 00:16:50;;;;;;;2.20;2.10;;;9.20;99.90;;;;;;5025112;28;20227;-79
2021/11/03 00:19:17;;;;;;;2.03;1.92;;;9.20;99.90;;;;;;5034424;28;20541;-79
2021/11/03 00:21:44;;;;;;;2.55;2.45;;;9.10;99.90;;;;;;5027172;28;20253;-80
2021/11/03 00:24:11;;;;;;;2.10;2.00;;;9.20;99.90;;;;;;5032084;28;20227;-79
2021/11/03 00:26:38;;;;;;;2.38;2.20;;;9.20;99.90;;;;;;5031219;28;20234;-78
2021/11/03 00:29:07;;;;;;;2.30;2.20;;;9.10;99.90;;;;;;5033275;28;20231;-79
2021/11/03 00:31:34;;;;;;;2.30;2.20;;;9.10;99.90;;;;;;5032948;28;20229;-79
2021/11/03 00:34:01;;;;;;;2.10;2.00;;;9.10;99.90;;;;;;5033310;28;20226;-79
2021/11/03 00:36:28;;;;;;;2.20;2.10;;;9.10;99.90;;;;;;5031594;28;20649;-77
2021/11/03 00:38:55;;;;;;;2.55;2.40;;;9.10;99.90;;;;;;5027586;28;20222;-79
2021/11/03 00:41:22;;;;;;;2.13;1.98;;;9.10;99.90;;;;;;5029887;28;20238;-79
2021/11/03 00:43:50;;;;;;;2.20;2.10;;;9.10;99.90;;;;;;5030862;28;20634;-78
2021/11/03 00:46:19;;;;;;;2.05;1.92;;;9.10;99.90;;;;;;5026137;28;20676;-79
2021/11/03 00:48:46;;;;;;;2.45;2.25;;;9.10;99.90;;;;;;5033768;28;20238;-78
2021/11/03 00:51:13;;;;;;;1.92;1.83;;;9.10;99.90;;;;;;5032444;28;20612;-79
2021/11/03 00:53:40;;;;;;;2.28;2.08;;;9.10;99.90;;;;;;5028293;28;20265;-79
2021/11/03 00:56:07;;;;;;;2.00;1.90;;;9.10;99.90;;;;;;5029923;28;20239;-79
2021/11/03 00:58:34;;;;;;;2.50;2.38;;;9.10;99.90;;;;;;5032670;28;20600;-79
2021/11/03 01:01:02;;;;;;;2.75;2.28;;;9.00;99.90;;;;;;5029859;28;20227;-78
2021/11/03 01:03:30;;;;;;;2.10;2.00;;;9.00;99.90;;;;;;5023595;28;20219;-78
2021/11/03 01:05:57;;;;;;;2.05;1.95;;;9.00;99.90;;;;;;5025854;28;20227;-78
2021/11/03 01:08:25;;;;;;;2.40;2.30;;;9.00;99.90;;;;;;5027076;28;20223;-78
2021/11/03 01:10:54;;;;;;;2.00;1.90;;;9.00;99.90;;;;;;5030740;28;20219;-77
2021/11/03 01:13:23;;;;;;;2.33;2.22;;;8.90;99.90;;;;;;5026335;28;20224;-77
2021/11/03 01:15:51;;;;;;;2.47;2.28;;;8.90;99.90;;;;;;5029126;28;20223;-80
2021/11/03 01:18:19;;;;;;;2.25;2.15;;;8.90;99.90;;;;;;5033662;28;20227;-79
2021/11/03 01:20:48;;;;;;;1.90;1.80;;;8.90;99.90;;;;;;5026562;28;20231;-79
2021/11/03 01:23:16;;;;;;;2.08;1.98;;;8.80;99.90;;;;;;5027333;28;20220;-76
2021/11/03 01:25:43;;;;;;;2.33;2.22;;;8.70;99.90;;;;;;5027199;28;20695;-77
2021/11/03 01:28:10;;;;;;;2.22;2.13;;;8.70;99.90;;;;;;5024948;28;20215;-76
2021/11/03 01:30:37;;;;;;;2.90;2.22;;;8.60;99.90;;;;;;5030060;28;20227;-77
2021/11/03 01:33:04;;;;;;;2.40;2.30;;;8.60;99.90;;;;;;5027632;28;20231;-77
2021/11/03 01:35:31;;;;;;;2.22;2.13;;;8.60;99.90;;;;;;5026632;28;20224;-80
2021/11/03 01:38:01;;;;;;;2.28;2.17;;;8.60;99.90;;;;;;5029270;28;20226;-77
2021/11/03 01:40:32;;;;;;;2.53;2.33;;;8.60;99.90;;;;;;5028850;28;20228;-76
2021/11/03 01:43:00;;;;;;;2.13;2.03;;;8.60;99.90;;;;;;5027135;28;20284;-79
2021/11/03 01:45:28;;;;;;;2.67;2.25;;;8.60;99.90;;;;;;5028956;28;20228;-80
2021/11/03 01:47:58;;;;;;;2.38;2.28;;;8.60;99.90;;;;;;5028320;28;20230;-77
2021/11/03 01:50:35;;;;;;;2.45;2.30;;;8.50;99.90;;;;;;5029169;28;20227;-78
2021/11/03 01:53:09;;;;;;;2.20;2.05;;;8.50;99.90;;;;;;5030313;28;20219;-78
2021/11/03 01:55:40;;;;;;;2.60;2.30;;;8.50;99.90;;;;;;5024134;28;20219;-77
2021/11/03 01:58:12;;;;;;;2.15;2.05;;;8.50;99.90;;;;;;5027189;28;20223;-77
2021/11/03 02:00:42;;;;;;;2.45;2.25;;;8.50;99.90;;;;;;5028759;28;20231;-78
2021/11/03 02:03:13;;;;;;;2.20;2.10;;;8.50;99.90;;;;;;5023606;28;20722;-77
2021/11/03 02:05:44;;;;;;;2.25;2.15;;;8.50;99.90;;;;;;5025958;28;20249;-78
2021/11/03 02:08:13;;;;;;;2.50;2.40;;;8.40;99.90;;;;;;5017924;28;20223;-78
2021/11/03 02:10:41;;;;;;;2.25;2.15;;;8.40;99.90;;;;;;5030979;28;20219;-79
2021/11/03 02:13:12;;;;;;;2.03;1.92;;;8.40;99.90;;;;;;5030488;28;20231;-80
2021/11/03 02:15:40;;;;;;;2.13;2.03;;;8.40;99.90;;;;;;5026496;28;20707;-78
2021/11/03 02:18:08;;;;;;;2.65;2.47;;;8.40;99.90;;;;;;5023145;28;20230;-79
2021/11/03 02:20:35;;;;;;;2.35;2.25;;;8.50;99.90;;;;;;5028900;28;20223;-79
2021/11/03 02:23:08;;;;;;;2.15;2.05;;;8.50;99.90;;;;;;5025798;28;20238;-78
2021/11/03 02:25:42;;;;;;;2.17;2.08;;;8.50;99.90;;;;;;5031125;28;20238;-79
2021/11/03 02:28:09;;;;;;;2.05;1.95;;;8.50;99.90;;;;;;5027609;28;20251;-79
2021/11/03 02:30:37;;;;;;;2.38;2.28;;;8.50;99.90;;;;;;5030885;28;20593;-78
2021/11/03 02:33:08;;;;;;;2.40;2.30;;;8.40;99.90;;;;;;5026191;28;20990;-79
2021/11/03 02:35:36;;;;;;;2.55;2.40;;;8.40;99.90;;;;;;5027329;28;23058;-79
2021/11/03 02:38:04;;;;;;;2.33;2.20;;;8.40;99.90;;;;;;5027121;28;20223;-79
2021/11/03 02:40:39;;;;;;;2.10;2.00;;;8.30;99.90;;;;;;5025554;28;20227;-78
2021/11/03 02:43:12;;;;;;;2.67;2.53;;;8.30;99.90;;;;;;5024782;28;20231;-79
2021/11/03 02:45:45;;;;;;;1.92;1.83;;;8.20;99.90;;;;;;5027032;28;20227;-78
2021/11/03 02:48:13;;;;;;;2.33;2.20;;;8.20;99.90;;;;;;5020840;28;20278;-79
2021/11/03 02:50:57;;;;;;;2.30;2.20;;;8.10;99.90;;;;;;5030750;28;20223;-78
2021/11/03 02:53:24;;;;;;;2.10;2.00;;;8.20;99.90;;;;;;5025222;28;20241;-78
2021/11/03 02:55:53;;;;;;;2.50;2.40;;;8.20;99.90;;;;;;5029046;28;20215;-78
2021/11/03 02:58:20;;;;;;;2.72;2.53;;;8.20;99.90;;;;;;5032835;28;20603;-77
2021/11/03 03:00:48;;;;;;;2.78;2.45;;;8.30;99.90;;;;;;5027293;28;20223;-79
2021/11/03 03:03:15;;;;;;;2.60;2.47;;;8.30;99.90;;;;;;5029004;28;20224;-79
2021/11/03 03:05:49;;;;;;;2.63;2.08;;;8.30;99.90;;;;;;5026869;28;20215;-78
2021/11/03 03:08:16;;;;;;;2.47;2.38;;;8.30;99.90;;;;;;5027140;28;20224;-79
2021/11/03 03:10:43;;;;;;;2.40;2.30;;;8.30;99.90;;;;;;5030429;28;20587;-78
2021/11/03 03:13:12;;;;;;;2.38;2.28;;;8.30;99.90;;;;;;5024249;28;20238;-78
2021/11/03 03:15:39;;;;;;;2.60;2.40;;;8.30;99.90;;;;;;5025198;28;20694;-77
2021/11/03 03:18:06;;;;;;;2.10;2.00;;;8.30;99.90;;;;;;5022762;28;20235;-77
2021/11/03 03:20:33;;;;;;;2.00;1.90;;;8.30;99.90;;;;;;5027091;28;20234;-78
2021/11/03 03:23:00;;;;;;;2.10;2.00;;;8.30;99.90;;;;;;5028844;28;20215;-78
2021/11/03 03:25:30;;;;;;;2.53;2.38;;;8.20;99.90;;;;;;5029758;28;20596;-78
2021/11/03 03:27:57;;;;;;;2.10;2.00;;;8.20;99.90;;;;;;5024325;28;20216;-78
2021/11/03 03:30:25;;;;;;;2.58;2.38;;;8.20;99.90;;;;;;5025798;28;20227;-78
2021/11/03 03:32:52;;;;;;;2.50;2.30;;;8.30;99.90;;;;;;5026662;28;20231;-78
2021/11/03 03:35:20;;;;;;;2.17;2.08;;;8.30;99.90;;;;;;5029692;28;20631;-80
2021/11/03 03:37:48;;;;;;;2.30;2.20;;;8.30;99.90;;;;;;5028810;28;20219;-78
2021/11/03 03:40:15;;;;;;;2.78;2.50;;;8.30;99.90;;;;;;5029278;28;20219;-77
2021/11/03 03:42:42;;;;;;;2.30;2.20;;;8.20;99.90;;;;;;5023324;28;20234;-78
2021/11/03 03:45:10;;;;;;;2.17;2.00;;;8.30;99.90;;;;;;5029349;28;20227;-79
2021/11/03 03:47:39;;;;;;;2.30;2.20;;;8.30;99.90;;;;;;5025130;28;20235;-79
2021/11/03 03:50:07;;;;;;;2.20;2.10;;;8.30;99.90;;;;;;5026073;28;20678;-79
2021/11/03 03:52:34;;;;;;;2.30;2.20;;;8.40;99.90;;;;;;5078241;23;20225;-76
2021/11/03 03:55:03;;;;;;;2.42;2.33;;;8.40;99.90;;;;;;5044920;28;20230;-74
2021/11/03 03:57:30;;;;;;;3.63;2.70;;;8.30;99.90;;;;;;5043301;28;20305;-75
2021/11/03 03:59:57;;;;;;;2.28;2.17;;;8.20;99.90;;;;;;5039036;28;20227;-74
2021/11/03 04:02:24;;;;;;;2.22;2.13;;;8.10;99.90;;;;;;5037856;28;20230;-75
2021/11/03 04:04:53;;;;;;;2.10;2.00;;;8.10;99.90;;;;;;5046402;28;20223;-75
2021/11/03 04:07:20;;;;;;;2.90;2.70;;;8.20;99.90;;;;;;5039281;28;20214;-74
2021/11/03 04:09:48;;;;;;;2.50;2.40;;;8.20;99.90;;;;;;5043042;28;20234;-78
2021/11/03 04:12:15;;;;;;;3.08;2.33;;;8.30;99.90;;;;;;5045897;28;20707;-74
2021/11/03 04:14:42;;;;;;;2.30;2.20;;;8.30;99.90;;;;;;5042112;28;20673;-75
2021/11/03 04:17:09;;;;;;;2.65;2.45;;;8.30;99.90;;;;;;5042017;28;20219;-76
2021/11/03 04:19:36;;;;;;;2.60;2.50;;;8.30;99.90;;;;;;5044294;28;20234;-77
2021/11/03 04:22:05;;;;;;;2.28;2.17;;;8.30;99.90;;;;;;5039737;28;20227;-79
2021/11/03 04:24:32;;;;;;;2.40;2.20;;;8.30;99.90;;;;;;5039232;28;20218;-76
2021/11/03 04:26:59;;;;;;;2.28;2.10;;;8.30;99.90;;;;;;5038543;28;20222;-81
2021/11/03 04:29:27;;;;;;;2.50;2.40;;;8.30;99.90;;;;;;5043333;28;20222;-74
2021/11/03 04:31:54;;;;;;;2.85;2.65;;;8.30;99.90;;;;;;5037794;28;20234;-73
2021/11/03 04:34:21;;;;;;;2.60;2.50;;;8.40;99.90;;;;;;5036015;28;20278;-74
2021/11/03 04:36:49;;;;;;;2.38;2.28;;;8.40;99.90;;;;;;5041061;28;20221;-74
2021/11/03 04:39:17;;;;;;;2.38;2.25;;;8.40;99.90;;;;;;5042985;28;20717;-76
2021/11/03 04:41:45;;;;;;;2.42;2.33;;;8.40;99.90;;;;;;5042107;28;20227;-76
2021/11/03 04:44:12;;;;;;;2.63;2.42;;;8.40;99.90;;;;;;5042798;28;20219;-77
2021/11/03 04:46:39;;;;;;;2.38;2.20;;;8.40;99.90;;;;;;5033705;28;20223;-77
2021/11/03 04:49:07;;;;;;;2.70;2.60;;;8.40;99.90;;;;;;5039554;28;20563;-76
2021/11/03 04:51:34;;;;;;;2.67;2.42;;;8.40;99.90;;;;;;5040776;28;20219;-77
2021/11/03 04:54:01;;;;;;;2.33;2.22;;;8.40;99.90;;;;;;5038918;28;20215;-76
2021/11/03 04:56:34;;;;;;;2.90;2.70;;;8.30;99.90;;;;;;5044808;28;20223;-76
2021/11/03 04:59:02;;;;;;;2.38;2.28;;;8.20;99.90;;;;;;5042304;28;20297;-78
2021/11/03 05:01:29;;;;;;;2.20;2.00;;;8.20;99.90;;;;;;5037462;28;20490;-80
2021/11/03 05:03:56;;;;;;;2.60;2.40;;;8.20;99.90;;;;;;5039922;28;20589;-76
2021/11/03 05:06:28;;;;;;;2.60;2.40;;;8.20;99.90;;;;;;5044423;28;20222;-75
2021/11/03 05:08:56;;;;;;;2.75;2.60;;;8.20;99.90;;;;;;5043618;28;20812;-74
2021/11/03 05:11:24;;;;;;;2.58;2.38;;;8.10;99.90;;;;;;5041195;28;20227;-75
2021/11/03 05:13:53;;;;;;;2.40;2.30;;;8.00;99.90;;;;;;5048241;28;20214;-74
2021/11/03 05:16:23;;;;;;;3.00;2.80;;;8.00;99.90;;;;;;5047212;28;20218;-74
2021/11/03 05:18:51;;;;;;;2.20;2.10;;;7.90;99.90;;;;;;5042535;28;20234;-79
2021/11/03 05:21:18;;;;;;;2.83;2.63;;;7.90;99.90;;;;;;5043573;28;20228;-74
2021/11/03 05:23:45;;;;;;;2.78;2.58;;;7.90;99.90;;;;;;5043444;28;20231;-75
2021/11/03 05:26:16;;;;;;;2.30;2.20;;;8.00;99.90;;;;;;5042531;28;20214;-75
2021/11/03 05:28:43;;;;;;;2.50;2.38;;;8.00;99.90;;;;;;5043502;28;20218;-75
2021/11/03 05:31:12;;;;;;;2.30;2.20;;;8.00;99.90;;;;;;5043902;28;20224;-77
2021/11/03 05:33:39;;;;;;;2.83;2.63;;;8.00;99.90;;;;;;5041463;28;20230;-76
2021/11/03 05:36:06;;;;;;;2.92;2.70;;;8.00;99.90;;;;;;5042953;28;20238;-77
2021/11/03 05:38:33;;;;;;;3.13;2.90;;;7.90;99.90;;;;;;5040952;28;20219;-75
2021/11/03 05:41:01;;;;;;;3.13;2.92;;;7.90;99.90;;;;;;5044582;28;20219;-76
2021/11/03 05:43:28;;;;;;;3.30;3.10;;;7.90;99.90;;;;;;5044663;28;20605;-76
2021/11/03 05:45:55;;;;;;;6.32;3.60;;;7.90;99.90;;;;;;5044140;28;20227;-77
2021/11/03 05:48:27;;;;;;;3.22;3.03;;;7.90;99.90;;;;;;5037187;28;20223;-76
2021/11/03 05:50:55;;;;;;;3.70;3.40;;;7.90;99.90;;;;;;5042939;28;20223;-76
2021/11/03 05:53:22;;;;;;;3.15;2.85;;;7.90;99.90;;;;;;5041787;28;20231;-76
2021/11/03 05:55:49;;;;;;;3.30;3.10;;;8.00;99.90;;;;;;5045189;28;20709;-76
2021/11/03 05:58:16;;;;;;;2.92;2.72;;;8.00;99.90;;;;;;5049192;28;20571;-75
2021/11/03 06:00:43;;;;;;;3.08;2.88;;;8.00;99.90;;;;;;5044916;28;20215;-77
2021/11/03 06:03:10;;;;;;;3.60;3.30;;;8.00;99.90;;;;;;5044164;28;20596;-75
2021/11/03 06:05:39;;;;;;;3.10;2.90;;;8.00;99.90;;;;;;5046043;28;20219;-75
2021/11/03 06:08:08;;;;;;;2.80;2.70;;;8.00;99.90;;;;;;5043099;28;20239;-74
2021/11/03 06:10:42;;;;;;;2.85;2.65;;;8.00;99.90;;;;;;5044194;28;20226;-77
2021/11/03 06:13:12;;;;;;;2.65;2.47;;;8.00;99.90;;;;;;5047183;28;20233;-77
2021/11/03 06:15:40;;;;;;;2.63;2.42;;;8.00;99.90;;;;;;5038666;28;20230;-76
2021/11/03 06:18:08;;;;;;;2.80;2.60;;;8.10;99.90;;;;;;5037782;28;20223;-76
2021/11/03 06:20:36;;;;;;;2.53;2.33;;;8.10;99.90;;;;;;5040427;28;20230;-75
2021/11/03 06:23:05;;;;;;;3.00;2.80;;;8.10;99.90;;;;;;5041893;28;20600;-79
2021/11/03 06:25:34;;;;;;;3.08;2.78;;;8.20;99.90;;;;;;5045452;28;20226;-75
2021/11/03 06:28:02;;;;;;;3.03;2.83;;;8.20;99.90;;;;;;5040637;28;20280;-79
2021/11/03 06:30:33;;;;;;;3.15;2.95;;;8.20;99.90;;;;;;5041194;28;20763;-78
2021/11/03 06:33:01;;;;;;;2.92;2.72;;;8.20;99.90;;;;;;5042089;28;20710;-75
2021/11/03 06:35:30;;;;;;;2.70;2.50;;;8.20;99.90;;;;;;5041758;28;20222;-78
2021/11/03 06:37:57;;;;;;;3.00;2.80;;;8.30;99.90;;;;;;5040781;28;20713;-77
2021/11/03 06:40:27;;;;;;;2.45;2.35;;;8.30;99.90;;;;;;5042657;28;20230;-75
2021/11/03 06:42:55;;;;;;;3.45;2.80;;;8.40;99.90;;;;;;5041464;28;20670;-74
2021/11/03 06:45:23;;;;;;;2.63;2.47;;;8.40;99.90;;;;;;5041679;28;20224;-77
2021/11/03 06:47:51;;;;;;;2.60;2.40;;;8.40;99.90;;;;;;5039733;28;20225;-74
2021/11/03 06:50:23;;;;;;;2.63;2.53;;;8.40;99.90;;;;;;5043950;28;20257;-74
2021/11/03 06:52:51;;;;;;;2.72;2.53;;;8.50;99.90;;;;;;5043981;28;20223;-75
2021/11/03 06:55:19;;;;;;;2.35;2.25;;;8.50;99.90;;;;;;5042937;28;20227;-74
2021/11/03 06:57:48;;;;;;;2.88;2.67;;;8.50;99.90;;;;;;5043622;28;20233;-76
2021/11/03 07:00:19;;;;;;;2.83;2.63;;;8.50;99.90;;;;;;5040087;28;20232;-77
2021/11/03 07:02:46;;;;;;;2.85;2.65;;;8.40;99.90;;;;;;5035886;28;20227;-74
2021/11/03 07:05:13;;;;;;;3.05;2.85;;;8.40;99.90;;;;;;5036917;28;20227;-76
2021/11/03 07:07:41;;;;;;;3.15;2.95;;;8.40;99.90;;;;;;5020587;28;20223;-73
2021/11/03 07:10:11;;;;;;;2.97;2.78;;;8.40;99.90;;;;;;5032490;28;20242;-76
2021/11/03 07:12:38;;;;;;;2.78;2.58;;;8.40;99.90;;;;;;5032551;28;20231;-76
2021/11/03 07:15:07;;;;;;;2.40;2.25;;;8.50;99.90;;;;;;5029445;28;20227;-75
2021/11/03 07:17:34;;;;;;;2.88;2.67;;;8.50;99.90;;;;;;5034374;28;20406;-75
2021/11/03 07:20:01;;;;;;;3.00;2.80;;;8.60;99.90;;;;;;5031073;28;20225;-75
2021/11/03 07:22:28;;;;;;;2.63;2.22;;;8.60;99.90;;;;;;5031755;28;20233;-74
2021/11/03 07:24:56;;;;;;;2.67;2.53;;;8.60;99.90;;;;;;5029774;28;20618;-74
2021/11/03 07:27:23;;;;;;;3.05;2.85;;;8.60;99.90;;;;;;5032482;28;20245;-74
2021/11/03 07:29:50;;;;;;;3.13;2.92;;;8.50;99.90;;;;;;5025849;28;20226;-73
2021/11/03 07:32:19;;;;;;;3.90;3.08;;;8.40;99.90;;;;;;5031171;28;20249;-75
2021/11/03 07:34:46;;;;;;;2.90;2.70;;;8.30;99.90;;;;;;5023617;28;20218;-74
2021/11/03 07:37:13;;;;;;;3.00;2.80;;;8.20;99.90;;;;;;5027601;28;20234;-73
2021/11/03 07:39:41;;;;;;;3.50;2.80;;;8.10;99.90;;;;;;5032745;28;20220;-75
2021/11/03 07:42:09;;;;;;;2.95;2.70;;;8.10;99.90;;;;;;5033934;28;20356;-76
2021/11/03 07:44:38;;;;;;;3.10;2.90;;;8.20;99.90;;;;;;5030646;28;20304;-75
2021/11/03 07:47:05;;;;;;;3.35;3.15;;;8.20;99.90;;;;;;5024772;28;20227;-75
2021/11/03 07:49:34;;;;;;;2.58;2.45;;;8.30;99.90;;;;;;5029010;28;20222;-77
2021/11/03 07:52:01;;;;;;;3.10;2.90;;;8.40;99.90;;;;;;5033021;28;20940;-74
2021/11/03 07:54:28;;;;;;;2.50;2.40;;;8.40;99.90;;;;;;5031709;28;20240;-74
2021/11/03 07:56:55;;;;;;;2.80;2.70;;;8.50;99.90;;;;;;5031687;28;20222;-75
2021/11/03 07:59:23;;;;;;;4.20;3.80;;;8.50;99.90;;;;;;5032703;28;20219;-76
2021/11/03 08:01:51;;;;;;;5.03;4.57;;;8.60;99.90;;;;;;5029109;28;20227;-76
2021/11/03 08:04:18;;;;;;;4.78;4.03;;;8.50;99.90;;;;;;5033565;28;20242;-75
2021/11/03 08:06:48;;;;;;;4.00;3.70;;;8.40;99.90;;;;;;5033235;28;20618;-74
2021/11/03 08:09:15;;;;;;;3.90;3.60;;;8.40;99.90;;;;;;5028848;28;20223;-75
2021/11/03 08:11:49;;;;;;;5.18;4.70;;;8.40;99.90;;;;;;5027688;28;20225;-76
2021/11/03 08:14:19;;;;;;;4.85;4.45;;;8.40;99.90;;;;;;5025223;28;20219;-75
2021/11/03 08:16:52;;;;;;;4.40;4.00;;;8.40;99.90;;;;;;5024657;28;20803;-75
2021/11/03 08:19:21;;;;;;;4.28;3.95;;;8.40;99.90;;;;;;5025606;28;20565;-76
2021/11/03 08:21:49;;;;;;;4.05;3.75;;;8.40;99.90;;;;;;5027981;28;20230;-74
2021/11/03 08:24:17;;;;;;;3.80;3.50;;;8.30;99.90;;;;;;5032010;28;20225;-74
2021/11/03 08:26:44;;;;;;;3.80;3.50;;;8.30;99.90;;;;;;5031877;28;20235;-79
2021/11/03 08:29:11;;;;;;;3.70;3.40;;;8.30;99.90;;;;;;4993081;28;21482;-74
2021/11/03 08:31:39;;;;;;;3.42;3.22;;;8.40;99.90;;;;;;5031274;28;20235;-81
2021/11/03 08:34:08;;;;;;;3.05;2.85;;;8.40;99.90;;;;;;5029209;28;20223;-72
2021/11/03 08:36:35;;;;;;;2.90;2.70;;;8.50;99.90;;;;;;5029231;28;20233;-73
2021/11/03 08:39:07;;;;;;;3.47;3.10;;;8.50;99.90;;;;;;5031035;28;20276;-79
2021/11/03 08:41:34;;;;;;;3.58;3.33;;;8.50;99.90;;;;;;5034871;28;20309;-74
2021/11/03 08:44:02;;;;;;;2.83;2.63;;;8.60;99.90;;;;;;5034780;28;20749;-75
2021/11/03 08:46:30;;;;;;;2.80;2.65;;;8.60;99.90;;;;;;5027620;28;20219;-75
2021/11/03 08:48:59;;;;;;;3.10;2.90;;;8.70;99.90;;;;;;5031348;28;20248;-77
2021/11/03 08:51:27;;;;;;;3.40;3.20;;;8.60;99.90;;;;;;5029876;28;20227;-73
2021/11/03 08:53:54;;;;;;;2.90;2.70;;;8.60;99.90;;;;;;5035766;28;20226;-75
2021/11/03 08:56:23;;;;;;;3.30;3.10;;;8.60;99.90;;;;;;5027947;28;20231;-74
2021/11/03 08:58:52;;;;;;;4.95;3.17;;;8.60;99.90;;;;;;5033384;28;20215;-76
2021/11/03 09:01:20;;;;;;;70.68;5.35;;;8.70;99.90;;;;;;5029778;28;20239;-74
2021/11/03 09:03:47;;;;;;;3.75;3.45;;;8.60;99.90;;;;;;5035285;28;20225;-76
2021/11/03 09:06:15;;;;;;;4.00;3.67;;;8.60;99.90;;;;;;5031441;28;20231;-73
2021/11/03 09:08:46;;;;;;;3.97;3.67;;;8.60;99.90;;;;;;5030434;28;20227;-73
2021/11/03 09:11:13;;;;;;;3.13;2.92;;;8.50;99.90;;;;;;5041758;28;20210;-76
2021/11/03 09:13:42;;;;;;;3.70;3.40;;;8.60;99.90;;;;;;5033268;28;20219;-78
2021/11/03 09:16:09;;;;;;;7.00;3.92;;;8.60;99.90;;;;;;5035707;28;20367;-74
2021/11/03 09:18:36;;;;;;;3.70;3.40;;;8.60;99.90;;;;;;5030617;28;20237;-75
2021/11/03 09:21:07;;;;;;;3.35;3.15;;;8.60;99.90;;;;;;5040101;28;20219;-75
2021/11/03 09:23:35;;;;;;;3.78;3.47;;;8.60;99.90;;;;;;5031379;28;20330;-75
2021/11/03 09:26:02;;;;;;;3.78;3.47;;;8.60;99.90;;;;;;5029604;28;20234;-76
2021/11/03 09:28:33;;;;;;;3.92;3.63;;;8.50;99.90;;;;;;5029350;28;20228;-76
2021/11/03 09:31:03;;;;;;;3.88;3.58;;;8.60;99.90;;;;;;5036391;28;20237;-74
2021/11/03 09:33:33;;;;;;;4.43;4.13;;;8.50;99.90;;;;;;5032748;28;20441;-75
2021/11/03 09:36:01;;;;;;;4.35;3.95;;;8.50;99.90;;;;;;5034459;28;20222;-73
2021/11/03 09:38:31;;;;;;;4.05;3.75;;;8.50;99.90;;;;;;5032452;28;20239;-76
2021/11/03 09:41:01;;;;;;;4.45;4.10;;;8.50;99.90;;;;;;5027218;28;20230;-75
2021/11/03 09:43:33;;;;;;;4.15;3.85;;;8.40;99.90;;;;;;5028531;28;20577;-75
2021/11/03 09:46:04;;;;;;;3.17;2.97;;;8.40;99.90;;;;;;5029449;28;20218;-76
2021/11/03 09:48:35;;;;;;;3.53;3.22;;;8.40;99.90;;;;;;5034175;28;20223;-77
2021/11/03 09:51:05;;;;;;;3.38;3.10;;;8.40;99.90;;;;;;5026392;28;20701;-75
2021/11/03 09:53:47;;;;;;;3.20;3.00;;;8.40;99.90;;;;;;5017861;22;20237;-76
2021/11/03 09:56:18;;;;;;;3.42;3.22;;;8.40;99.90;;;;;;5040123;28;20222;-75
2021/11/03 09:59:03;;;;;;;3.67;3.47;;;8.30;99.90;;;;;;5046059;28;20250;-75
2021/11/03 10:01:42;;;;;;;3.50;3.20;;;8.40;99.90;;;;;;5027607;28;20225;-75
2021/11/03 10:04:25;;;;;;;3.60;3.30;;;8.40;99.90;;;;;;5037628;28;20309;-75
2021/11/03 10:07:01;;;;;;;3.95;3.65;;;8.50;99.90;;;;;;5038970;28;20221;-75
2021/11/03 10:09:29;;;;;;;4.10;3.80;;;8.40;99.90;;;;;;5036910;28;20226;-76
2021/11/03 10:11:56;;;;;;;4.00;3.55;;;8.30;99.90;;;;;;5037429;28;20223;-76
2021/11/03 10:14:24;;;;;;;4.18;3.88;;;8.30;99.90;;;;;;5036265;28;20655;-75
2021/11/03 10:16:56;;;;;;;3.72;3.42;;;8.30;99.90;;;;;;5034551;28;20230;-74
2021/11/03 10:19:31;;;;;;;4.45;4.10;;;8.40;99.90;;;;;;5040728;28;20224;-75
2021/11/03 10:22:00;;;;;;;4.10;3.80;;;8.50;99.90;;;;;;5041615;28;20210;-75
2021/11/03 10:24:40;;;;;;;3.95;3.65;;;8.60;99.90;;;;;;5035750;28;20243;-76
2021/11/03 10:27:20;;;;;;;4.07;3.78;;;8.60;99.90;;;;;;5041051;28;20219;-74
2021/11/03 10:29:49;;;;;;;4.25;3.92;;;8.60;99.90;;;;;;5039234;28;20225;-76
2021/11/03 10:32:25;;;;;;;3.95;3.65;;;8.70;99.90;;;;;;5040952;28;20249;-75
2021/11/03 10:35:04;;;;;;;3.63;3.42;;;8.70;99.90;;;;;;5039547;28;20823;-72
2021/11/03 10:37:38;;;;;;;4.13;3.83;;;8.80;99.90;;;;;;5041918;28;20211;-74
2021/11/03 10:40:26;;;;;;;3.55;3.28;;;8.80;99.90;;;;;;5034007;28;20219;-77
2021/11/03 10:42:56;;;;;;;3.55;3.25;;;8.80;99.90;;;;;;5040238;28;20242;-72
2021/11/03 10:45:29;;;;;;;4.22;3.80;;;8.80;99.90;;;;;;5035125;28;20999;-75
2021/11/03 10:48:12;;;;;;;3.47;3.28;;;8.80;99.90;;;;;;5038510;28;20220;-73
2021/11/03 10:50:43;;;;;;;4.22;3.92;;;8.80;99.90;;;;;;5037831;28;20238;-75
2021/11/03 10:53:18;;;;;;;3.75;3.42;;;8.80;99.90;;;;;;5037183;28;20219;-75
2021/11/03 10:55:48;;;;;;;3.60;3.30;;;8.80;99.90;;;;;;5034322;28;20598;-74
2021/11/03 10:58:24;;;;;;;3.80;3.50;;;8.80;99.90;;;;;;5037252;28;20226;-76
2021/11/03 11:01:05;;;;;;;3.92;3.63;;;8.70;99.90;;;;;;5030621;28;20221;-76
2021/11/03 11:03:36;;;;;;;3.90;3.60;;;8.60;99.90;;;;;;5034336;28;20698;-76
2021/11/03 11:06:18;;;;;;;3.60;3.30;;;8.60;99.90;;;;;;5038921;28;20230;-76
2021/11/03 11:08:51;;;;;;;4.85;4.35;;;8.60;99.90;;;;;;5037806;28;20215;-76
2021/11/03 11:11:22;;;;;;;6.05;5.53;;;8.60;99.90;;;;;;5035635;28;20230;-74
2021/11/03 11:13:57;;;;;;;7.05;6.35;;;8.70;99.90;;;;;;5032773;28;20656;-73
2021/11/03 11:16:42;;;;;;;7.20;6.50;;;8.70;99.90;;;;;;5041456;28;20263;-75
2021/11/03 11:19:30;;;;;;;15.32;7.28;;;8.70;99.90;;;;;;5037769;28;20222;-74
2021/11/03 11:22:02;;;;;;;21.30;6.97;;;8.70;99.90;;;;;;5037562;28;20218;-75
2021/11/03 11:24:34;;;;;;;9.00;5.57;;;8.70;99.90;;;;;;5036745;28;20233;-75
2021/11/03 11:27:23;;;;;;;7.80;5.05;;;8.60;99.90;;;;;;5033096;28;20222;-76
2021/11/03 11:29:58;;;;;;;10.45;4.25;;;8.60;99.90;;;;;;5032470;28;20230;-75
2021/11/03 11:32:34;;;;;;;4.28;3.97;;;8.60;99.90;;;;;;5033684;28;20230;-76
2021/11/03 11:35:15;;;;;;;4.30;3.92;;;8.60;99.90;;;;;;5032897;28;20865;-75
2021/11/03 11:38:07;;;;;;;4.53;4.13;;;8.60;99.90;;;;;;5039871;28;20227;-77
2021/11/03 11:40:47;;;;;;;4.57;4.00;;;8.60;99.90;;;;;;5034978;28;20214;-73
2021/11/03 11:43:21;;;;;;;5.22;4.40;;;8.60;99.90;;;;;;5038277;28;20280;-76
2021/11/03 11:45:49;;;;;;;12.80;7.38;;;8.60;99.90;;;;;;5031651;28;20711;-76
2021/11/03 11:48:22;;;;;;;6.78;4.57;;;8.60;99.90;;;;;;5037067;28;20234;-75
2021/11/03 11:50:55;;;;;;;6.32;5.20;;;8.60;99.90;;;;;;5039626;28;20275;-76
2021/11/03 11:53:29;;;;;;;4.80;4.28;;;8.60;99.90;;;;;;5037454;28;20223;-76
2021/11/03 11:56:21;;;;;;;4.80;4.28;;;8.60;99.90;;;;;;5043367;28;20230;-74
2021/11/03 11:58:51;;;;;;;4.45;4.05;;;8.60;99.90;;;;;;5051740;28;20199;-75
2021/11/03 12:01:30;;;;;;;3.58;3.28;;;8.50;99.90;;;;;;5047735;28;20195;-74
2021/11/03 12:04:37;;;;;;;4.05;3.65;;;8.50;99.90;;;;;;5043672;28;20222;-76
2021/11/03 12:07:29;;;;;;;4.55;3.75;;;8.50;99.90;;;;;;5048922;28;20194;-75
2021/11/03 12:10:25;;;;;;;4.07;3.67;;;8.60;99.90;;;;;;5033587;28;20818;-75
2021/11/03 12:13:30;;;;;;;4.93;3.70;;;8.50;99.90;;;;;;5037273;28;20218;-74
2021/11/03 12:16:24;;;;;;;4.03;3.40;;;8.50;99.90;;;;;;5037770;28;20222;-76
2021/11/03 12:18:56;;;;;;;3.95;3.65;;;8.50;99.90;;;;;;5031562;28;20222;-75
2021/11/03 12:22:00;;;;;;;3.78;3.47;;;8.50;99.90;;;;;;5038900;28;20234;-75
2021/11/03 12:24:40;;;;;;;3.47;3.28;;;8.50;99.90;;;;;;5038923;28;20469;-76
2021/11/03 12:27:30;;;;;;;3.88;3.58;;;8.50;99.90;;;;;;5037255;28;20234;-76
2021/11/03 12:30:01;;;;;;;4.55;3.60;;;8.50;99.90;;;;;;5034535;28;20261;-76
2021/11/03 12:32:32;;;;;;;4.18;3.88;;;8.40;99.90;;;;;;5031937;28;20219;-76
2021/11/03 12:35:21;;;;;;;4.50;4.05;;;8.40;99.90;;;;;;5039077;28;20227;-76
2021/11/03 12:37:52;;;;;;;4.97;4.35;;;8.40;99.90;;;;;;5037255;28;20222;-76
2021/11/03 12:40:31;;;;;;;4.57;4.20;;;8.30;99.90;;;;;;5040129;28;20230;-76
2021/11/03 12:43:19;;;;;;;5.72;5.22;;;8.20;99.90;;;;;;5036399;28;20202;-76
2021/11/03 12:46:02;;;;;;;4.68;4.38;;;8.20;99.90;;;;;;5048158;28;20199;-76
2021/11/03 12:48:36;;;;;;;4.35;4.05;;;8.10;99.90;;;;;;5044188;28;20679;-76
2021/11/03 12:51:16;;;;;;;4.20;3.90;;;8.10;99.90;;;;;;5043344;28;20611;-76
2021/11/03 12:53:50;;;;;;;3.38;3.10;;;8.10;99.90;;;;;;5041097;28;20234;-74
2021/11/03 12:56:23;;;;;;;4.00;3.70;;;8.20;99.90;;;;;;5024942;28;20257;-74
2021/11/03 12:58:53;;;;;;;4.10;3.80;;;8.20;99.90;;;;;;5039082;28;20214;-77
2021/11/03 13:01:23;;;;;;;3.33;3.13;;;8.30;99.90;;;;;;5039802;28;20701;-75
2021/11/03 13:03:54;;;;;;;3.65;3.45;;;8.30;99.90;;;;;;5031197;28;20604;-76
2021/11/03 13:06:25;;;;;;;3.28;3.08;;;8.30;99.90;;;;;;5033480;28;20243;-75
2021/11/03 13:08:53;;;;;;;3.45;3.25;;;8.20;99.90;;;;;;5043118;28;20225;-76
2021/11/03 13:11:24;;;;;;;3.10;2.90;;;8.20;99.90;;;;;;5039034;28;20231;-76
2021/11/03 13:13:54;;;;;;;3.42;3.22;;;8.20;99.90;;;;;;5037219;28;20228;-76
2021/11/03 13:16:35;;;;;;;3.85;3.55;;;8.20;99.90;;;;;;5031693;28;20234;-75